Time;durP1;ratioP1;P1;durP2;ratioP2;P2;SDS_P1;SDS_P2;PMS_P1;PMS_P2;Temp;Humidity;BMP_temperature;BMP_pressure;BME280_temperature;BME280_humidity;BME280_pressure;Samples;Min_cycle;Max_cycle;Signal;HPM_P1;HPM_P2
2023/06/16 00:00:19;;;;;;;18.25;6.57;;;;;;;15.37;75.46;101669.34;5043835;28;20028;-74
2023/06/16 00:02:48;;;;;;;16.42;6.88;;;;;;;15.36;76.44;101670.31;5057523;28;20123;-74
2023/06/16 00:05:13;;;;;;;19.60;6.50;;;;;;;15.33;76.73;101669.69;5044557;28;20079;-74
2023/06/16 00:07:39;;;;;;;16.55;6.90;;;;;;;15.28;76.70;101661.94;5043683;28;20044;-74
2023/06/16 00:10:08;;;;;;;17.42;6.25;;;;;;;15.25;76.01;101666.75;5042771;28;20460;-74
2023/06/16 00:12:35;;;;;;;19.27;6.47;;;;;;;15.20;76.60;101665.25;5062830;28;20036;-74
2023/06/16 00:15:01;;;;;;;17.55;6.95;;;;;;;15.22;76.54;101659.72;5061419;28;20383;-74
2023/06/16 00:17:26;;;;;;;17.35;5.85;;;;;;;15.16;76.30;101657.50;5064084;28;20019;-74
2023/06/16 00:19:54;;;;;;;18.25;6.88;;;;;;;15.12;76.82;101648.75;5060408;28;20037;-74
2023/06/16 00:22:20;;;;;;;16.55;6.18;;;;;;;15.11;75.55;101654.28;5043238;28;20032;-74
2023/06/16 00:24:46;;;;;;;19.48;6.18;;;;;;;15.09;76.78;101659.84;5055232;28;20033;-74
2023/06/16 00:27:12;;;;;;;20.73;7.45;;;;;;;15.06;75.91;101668.19;5038967;28;20036;-74
2023/06/16 00:29:38;;;;;;;17.65;6.43;;;;;;;15.07;74.77;101661.81;5067505;28;20474;-74
2023/06/16 00:32:04;;;;;;;15.63;6.18;;;;;;;15.04;74.06;101662.06;5063799;28;20032;-74
2023/06/16 00:34:29;;;;;;;19.25;6.88;;;;;;;15.05;76.08;101662.91;5057611;28;20445;-74
2023/06/16 00:36:55;;;;;;;17.90;7.28;;;;;;;15.06;75.00;101670.91;5043556;28;20029;-74
2023/06/16 00:39:20;;;;;;;21.48;6.93;;;;;;;15.05;75.45;101665.63;5044130;28;20078;-74
2023/06/16 00:41:46;;;;;;;17.13;6.85;;;;;;;15.02;75.93;101662.19;5045884;28;20028;-74
2023/06/16 00:44:11;;;;;;;17.58;6.88;;;;;;;15.02;75.65;101662.19;5054938;28;20052;-74
2023/06/16 00:46:36;;;;;;;19.67;6.70;;;;;;;14.99;75.94;101662.44;5057167;28;20481;-74
2023/06/16 00:49:02;;;;;;;18.88;6.90;;;;;;;14.98;76.05;101660.69;5061663;28;20027;-74
2023/06/16 00:51:30;;;;;;;20.33;6.75;;;;;;;14.98;75.69;101663.41;5062862;28;20379;-74
2023/06/16 00:53:55;;;;;;;17.45;7.20;;;;;;;14.93;75.60;101654.78;5059545;28;20109;-74
2023/06/16 00:56:21;;;;;;;20.75;6.85;;;;;;;14.92;75.81;101646.78;5058190;28;20024;-74
2023/06/16 00:58:50;;;;;;;19.08;6.60;;;;;;;14.90;75.90;101646.03;5044790;28;20028;-74
2023/06/16 01:01:15;;;;;;;19.35;6.68;;;;;;;14.88;75.23;101643.47;5039274;28;20171;-74
2023/06/16 01:03:41;;;;;;;19.23;7.28;;;;;;;14.89;75.97;101652.44;5056589;28;20538;-74
2023/06/16 01:06:15;;;;;;;19.80;7.60;;;;;;;14.86;75.99;101634.59;5040616;28;20033;-74
2023/06/16 01:08:51;;;;;;;18.63;6.88;;;;;;;14.86;75.52;101640.00;5058377;28;20037;-74
2023/06/16 01:11:47;;;;;;;18.83;6.60;;;;;;;14.84;73.75;101636.56;5060994;28;20025;-74
2023/06/16 01:14:19;;;;;;;20.58;8.13;;;;;;;14.81;74.78;101636.81;5052964;28;20040;-74
2023/06/16 01:16:46;;;;;;;19.20;7.20;;;;;;;14.78;74.95;101631.66;5043824;28;20036;-74
2023/06/16 01:19:22;;;;;;;21.27;7.75;;;;;;;14.77;74.36;101638.03;5038947;28;20016;-74
2023/06/16 01:22:00;;;;;;;19.92;7.47;;;;;;;14.74;74.85;101636.41;5045635;28;20075;-74
2023/06/16 01:24:27;;;;;;;19.75;7.78;;;;;;;14.71;74.24;101633.97;5055043;28;20025;-74
2023/06/16 01:26:58;;;;;;;19.67;6.72;;;;;;;14.68;74.67;101643.19;5059393;28;20052;-74
2023/06/16 01:29:25;;;;;;;18.48;6.82;;;;;;;14.68;73.72;101637.78;5048916;28;20075;-74
2023/06/16 01:32:00;;;;;;;20.25;7.00;;;;;;;14.71;74.90;101643.94;5055912;28;20033;-74
2023/06/16 01:34:27;;;;;;;20.45;7.25;;;;;;;14.68;73.57;101645.91;5056966;28;20435;-74
2023/06/16 01:36:53;;;;;;;21.23;7.32;;;;;;;14.68;73.54;101645.03;5040379;28;20079;-74
2023/06/16 01:39:20;;;;;;;16.58;6.60;;;;;;;14.67;72.42;101644.16;5062841;28;20028;-74
2023/06/16 01:41:47;;;;;;;19.27;7.35;;;;;;;14.67;72.54;101646.00;5059849;28;20048;-74
2023/06/16 01:44:12;;;;;;;22.55;8.43;;;;;;;14.65;73.69;101640.72;5026730;28;20028;-74
2023/06/16 01:46:39;;;;;;;19.15;7.55;;;;;;;14.66;73.43;101639.72;5051616;28;20102;-74
2023/06/16 01:49:05;;;;;;;17.80;6.80;;;;;;;14.64;72.32;101633.59;5061179;28;20028;-74
2023/06/16 01:51:30;;;;;;;20.73;7.90;;;;;;;14.65;72.85;101637.16;5045387;28;20074;-74
2023/06/16 01:53:56;;;;;;;19.55;7.55;;;;;;;14.63;73.89;101636.41;5065911;28;20458;-75
2023/06/16 01:56:22;;;;;;;19.75;7.45;;;;;;;14.57;73.02;101637.72;5058766;28;21564;-74
2023/06/16 01:58:47;;;;;;;18.40;7.50;;;;;;;14.56;72.41;101633.28;5045635;28;20428;-74
2023/06/16 02:01:25;;;;;;;18.25;7.93;;;;;;;14.57;73.69;101639.53;5053672;28;20028;-74
2023/06/16 02:03:58;;;;;;;18.75;7.95;;;;;;;14.51;73.64;101640.91;5063923;28;20032;-74
2023/06/16 02:06:29;;;;;;;20.50;7.93;;;;;;;14.45;74.17;101642.25;5061140;28;20052;-74
2023/06/16 02:08:58;;;;;;;20.10;8.30;;;;;;;14.45;73.53;101633.25;5057355;28;20040;-74
2023/06/16 02:11:24;;;;;;;;;;;;;;;14.55;72.01;101642.38;5039866;28;20025;-74
2023/06/16 02:13:49;;;;;;;23.33;8.60;;;;;;;14.44;73.92;101640.50;5059075;28;19920;-74
2023/06/16 02:16:15;;;;;;;20.48;7.90;;;;;;;14.44;73.15;101634.25;5060249;28;20357;-74
2023/06/16 02:18:40;;;;;;;19.20;8.10;;;;;;;14.39;73.36;101639.97;5040647;28;20028;-74
2023/06/16 02:21:05;;;;;;;21.10;7.80;;;;;;;14.37;73.31;101638.41;5037603;28;20028;-74
2023/06/16 02:23:37;;;;;;;21.60;8.43;;;;;;;14.34;73.87;101644.91;5070161;28;20395;-75
2023/06/16 02:26:03;;;;;;;20.35;8.38;;;;;;;14.33;73.23;101645.88;5074030;28;20386;-74
2023/06/16 02:28:28;;;;;;;23.20;8.35;;;;;;;14.32;73.79;101646.88;5075145;28;20086;-74
2023/06/16 02:30:53;;;;;;;17.95;7.60;;;;;;;14.26;73.49;101641.91;5067563;28;20400;-74
2023/06/16 02:33:19;;;;;;;20.60;8.63;;;;;;;14.25;74.25;101638.34;5065093;28;20021;-75
2023/06/16 02:35:44;;;;;;;20.05;9.07;;;;;;;14.24;73.37;101650.13;5071198;28;20160;-75
2023/06/16 02:38:09;;;;;;;21.88;8.73;;;;;;;14.23;73.10;101644.84;5076743;28;20029;-74
2023/06/16 02:40:35;;;;;;;20.20;8.45;;;;;;;14.17;74.43;101648.88;5078997;28;20103;-75
2023/06/16 02:43:00;;;;;;;20.23;7.93;;;;;;;14.13;74.31;101642.00;5077612;28;20116;-75
2023/06/16 02:45:26;;;;;;;19.30;8.50;;;;;;;14.10;75.71;101637.69;5073264;28;20369;-75
2023/06/16 02:47:51;;;;;;;20.23;7.60;;;;;;;14.08;76.49;101644.19;5069328;28;20028;-75
2023/06/16 02:50:16;;;;;;;20.85;7.63;;;;;;;14.01;77.25;101637.50;5081025;28;20032;-74
2023/06/16 02:52:42;;;;;;;20.67;8.35;;;;;;;13.95;77.01;101644.22;5077814;28;20468;-74
2023/06/16 02:55:13;;;;;;;20.10;8.88;;;;;;;13.90;77.27;101641.88;5072237;28;20114;-74
2023/06/16 02:57:38;;;;;;;21.80;7.72;;;;;;;13.84;77.28;101634.25;5077677;28;20032;-75
2023/06/16 03:00:08;;;;;;;19.65;8.85;;;;;;;13.81;77.36;101635.31;5074824;28;20111;-75
2023/06/16 03:02:34;;;;;;;20.63;8.82;;;;;;;13.72;78.39;101640.53;5068030;28;20063;-75
2023/06/16 03:05:01;;;;;;;20.45;8.48;;;;;;;13.68;78.90;101636.38;5071219;28;20068;-75
2023/06/16 03:07:31;;;;;;;20.20;8.88;;;;;;;13.59;78.25;101632.50;5075788;28;20028;-75
2023/06/16 03:09:56;;;;;;;20.38;9.38;;;;;;;13.56;78.94;101632.72;5062484;28;20107;-75
2023/06/16 03:12:21;;;;;;;21.50;8.45;;;;;;;13.49;78.76;101637.72;5073477;28;20718;-75
2023/06/16 03:14:47;;;;;;;18.92;8.30;;;;;;;13.45;78.62;101630.78;5077576;28;20104;-75
2023/06/16 03:17:13;;;;;;;22.23;8.85;;;;;;;13.41;79.88;101634.69;5075324;28;20048;-75
2023/06/16 03:19:39;;;;;;;23.67;8.40;;;;;;;13.34;80.10;101634.28;5073670;28;20036;-75
2023/06/16 03:22:04;;;;;;;26.58;8.88;;;;;;;13.28;80.21;101640.97;5078194;28;20036;-75
2023/06/16 03:24:33;;;;;;;22.15;9.48;;;;;;;13.24;80.83;101636.75;5064954;28;20029;-75
2023/06/16 03:26:58;;;;;;;22.35;8.85;;;;;;;13.16;80.64;101641.81;5076283;28;20035;-75
2023/06/16 03:29:23;;;;;;;20.50;9.00;;;;;;;13.13;81.04;101647.44;5070728;28;20028;-75
2023/06/16 03:31:49;;;;;;;17.92;7.63;;;;;;;13.08;81.64;101650.47;5078408;28;20035;-75
2023/06/16 03:34:14;;;;;;;23.15;8.25;;;;;;;13.03;81.98;101639.16;5054670;28;20056;-75
2023/06/16 03:36:40;;;;;;;21.02;8.70;;;;;;;12.99;81.91;101644.88;5052815;28;20480;-75
2023/06/16 03:39:05;;;;;;;20.92;8.18;;;;;;;12.98;82.41;101649.41;5048737;28;20042;-74
2023/06/16 03:41:33;;;;;;;23.13;9.48;;;;;;;12.91;83.04;101646.28;5049718;28;20041;-75
2023/06/16 03:43:58;;;;;;;22.02;9.05;;;;;;;12.87;82.64;101652.88;5062625;28;20424;-75
2023/06/16 03:46:23;;;;;;;21.30;8.35;;;;;;;12.89;83.14;101655.47;5058127;28;20104;-75
2023/06/16 03:48:49;;;;;;;21.48;8.75;;;;;;;12.89;83.36;101645.53;5060589;28;20029;-75
2023/06/16 03:51:15;;;;;;;21.95;8.88;;;;;;;12.88;84.02;101646.47;5061676;28;20044;-75
2023/06/16 03:53:41;;;;;;;20.77;8.43;;;;;;;12.88;83.71;101651.88;5056835;28;20039;-74
2023/06/16 03:56:07;;;;;;;22.77;10.45;;;;;;;12.87;83.11;101650.19;5059765;28;20032;-75
2023/06/16 03:58:32;;;;;;;21.77;9.68;;;;;;;12.89;83.81;101639.28;5061381;28;20036;-75
2023/06/16 04:00:58;;;;;;;23.00;9.07;;;;;;;12.88;84.85;101651.88;5043500;28;20025;-75
2023/06/16 04:03:25;;;;;;;20.38;9.10;;;;;;;12.88;84.40;101649.19;5038499;28;20099;-75
2023/06/16 04:05:52;;;;;;;21.23;7.88;;;;;;;12.87;84.64;101652.88;5059802;28;20020;-75
2023/06/16 04:08:17;;;;;;;20.38;9.15;;;;;;;12.90;84.95;101658.06;5062147;28;20070;-75
2023/06/16 04:10:42;;;;;;;21.77;9.05;;;;;;;12.87;85.08;101652.88;5054373;28;20024;-75
2023/06/16 04:13:08;;;;;;;21.27;9.57;;;;;;;12.83;85.40;101658.59;5059042;28;20020;-75
2023/06/16 04:15:33;;;;;;;23.33;10.00;;;;;;;12.84;85.92;101658.50;5050056;28;20119;-75
2023/06/16 04:17:58;;;;;;;20.08;8.80;;;;;;;12.85;85.77;101664.75;5046745;28;20098;-75
2023/06/16 04:20:23;;;;;;;23.45;9.15;;;;;;;12.86;85.75;101661.94;5050916;28;20047;-75
2023/06/16 04:22:49;;;;;;;20.80;9.50;;;;;;;12.86;86.72;101666.47;5054427;28;20059;-75
2023/06/16 04:25:14;;;;;;;21.77;9.13;;;;;;;12.85;86.81;101668.28;5056730;28;20040;-75
2023/06/16 04:27:40;;;;;;;21.92;9.85;;;;;;;12.88;87.21;101664.53;5054398;28;20464;-75
2023/06/16 04:30:06;;;;;;;19.85;8.75;;;;;;;12.92;87.49;101671.44;5063149;28;20510;-75
2023/06/16 04:32:36;;;;;;;31.70;10.27;;;;;;;12.94;88.77;101664.97;5063802;28;20130;-75
2023/06/16 04:35:04;;;;;;;24.60;9.88;;;;;;;12.97;88.47;101668.41;5049480;28;20029;-75
2023/06/16 04:37:30;;;;;;;21.83;10.60;;;;;;;13.02;88.85;101675.22;5060992;28;20036;-75
2023/06/16 04:39:55;;;;;;;22.52;10.10;;;;;;;13.06;89.08;101667.75;5042731;28;20021;-75
2023/06/16 04:42:21;;;;;;;29.40;10.43;;;;;;;13.09;89.39;101668.41;5053106;28;20073;-75
2023/06/16 04:44:46;;;;;;;27.67;10.98;;;;;;;13.13;89.73;101669.03;5058105;28;20389;-75
2023/06/16 04:47:12;;;;;;;33.85;11.15;;;;;;;13.19;89.32;101676.72;5056802;28;20622;-74
2023/06/16 04:49:38;;;;;;;28.10;10.05;;;;;;;13.26;89.25;101677.13;5050828;28;20025;-75
2023/06/16 04:52:06;;;;;;;39.53;10.65;;;;;;;13.31;89.71;101674.09;5054908;28;20033;-75
2023/06/16 04:54:31;;;;;;;28.95;10.57;;;;;;;13.37;90.25;101676.41;5061906;28;20036;-75
2023/06/16 04:56:56;;;;;;;29.20;12.32;;;;;;;13.43;88.08;101675.97;5061787;28;20031;-75
2023/06/16 04:59:22;;;;;;;27.60;11.25;;;;;;;13.48;89.87;101672.94;5055960;28;20085;-75
2023/06/16 05:01:47;;;;;;;23.17;11.18;;;;;;;13.54;89.87;101675.19;5054894;28;20028;-75
2023/06/16 05:04:13;;;;;;;31.30;11.70;;;;;;;13.58;89.92;101674.84;5057602;28;20548;-75
2023/06/16 05:06:38;;;;;;;22.45;10.98;;;;;;;13.61;90.92;101680.00;5048746;28;20016;-75
2023/06/16 05:09:04;;;;;;;26.55;11.15;;;;;;;13.66;90.04;101679.69;5054943;28;20083;-75
2023/06/16 05:11:30;;;;;;;24.23;11.05;;;;;;;13.74;89.20;101677.28;5054127;28;20040;-75
2023/06/16 05:13:55;;;;;;;24.38;11.40;;;;;;;13.82;90.35;101679.41;5062799;28;20043;-75
2023/06/16 05:16:20;;;;;;;29.33;11.85;;;;;;;13.89;91.05;101683.38;5052295;28;20465;-75
2023/06/16 05:18:46;;;;;;;27.65;10.98;;;;;;;13.97;91.53;101689.09;5048646;28;20446;-75
2023/06/16 05:21:11;;;;;;;22.20;11.57;;;;;;;14.04;89.49;101685.94;5049713;28;20104;-74
2023/06/16 05:23:36;;;;;;;26.98;12.10;;;;;;;14.11;87.65;101684.50;5052465;28;20054;-74
2023/06/16 05:26:02;;;;;;;25.75;12.20;;;;;;;14.20;86.40;101686.50;5056201;28;20025;-74
2023/06/16 05:28:27;;;;;;;22.95;11.82;;;;;;;14.28;87.24;101692.19;5045779;28;20052;-74
2023/06/16 05:30:53;;;;;;;27.40;11.57;;;;;;;14.36;86.21;101685.34;5059584;28;20040;-74
2023/06/16 05:33:18;;;;;;;26.27;12.25;;;;;;;14.44;86.26;101689.19;5057285;28;20662;-75
2023/06/16 05:35:43;;;;;;;24.95;12.23;;;;;;;14.54;87.45;101686.66;5058569;28;20108;-74
2023/06/16 05:38:08;;;;;;;23.40;11.50;;;;;;;14.62;87.45;101686.94;5062484;28;20616;-74
2023/06/16 05:40:34;;;;;;;24.40;11.57;;;;;;;14.71;87.15;101692.63;5060234;28;20039;-74
2023/06/16 05:42:59;;;;;;;26.70;12.82;;;;;;;14.78;83.55;101691.19;5058399;28;20415;-74
2023/06/16 05:45:24;;;;;;;26.38;13.02;;;;;;;14.87;85.90;101695.00;5060347;28;20055;-75
2023/06/16 05:47:50;;;;;;;23.35;12.73;;;;;;;14.94;84.75;101698.97;5057309;28;20090;-76
2023/06/16 05:50:15;;;;;;;23.48;11.32;;;;;;;15.00;84.18;101693.91;5051399;28;20078;-74
2023/06/16 05:52:40;;;;;;;24.83;12.93;;;;;;;15.09;84.56;101686.91;5048357;28;20029;-75
2023/06/16 05:55:10;;;;;;;21.92;10.73;;;;;;;15.17;84.09;101691.75;5054203;28;20385;-75
2023/06/16 05:57:36;;;;;;;25.23;12.50;;;;;;;15.25;82.41;101697.38;5061505;28;20033;-74
2023/06/16 06:00:02;;;;;;;31.73;12.50;;;;;;;15.32;83.45;101690.50;5056115;28;20542;-76
2023/06/16 06:02:27;;;;;;;22.02;12.13;;;;;;;15.41;80.36;101694.31;5042592;28;20036;-74
2023/06/16 06:04:52;;;;;;;21.60;12.45;;;;;;;15.49;81.48;101696.41;5048236;28;20028;-74
2023/06/16 06:07:18;;;;;;;21.55;11.27;;;;;;;15.57;81.35;101706.63;5051250;28;20036;-74
2023/06/16 06:09:43;;;;;;;25.27;13.10;;;;;;;15.63;78.40;101706.13;5046244;28;20027;-75
2023/06/16 06:12:11;;;;;;;26.77;13.13;;;;;;;15.72;79.21;101713.50;5043848;28;20060;-75
2023/06/16 06:14:37;;;;;;;23.45;12.63;;;;;;;15.80;79.51;101705.66;5038336;28;20036;-76
2023/06/16 06:17:03;;;;;;;29.25;12.57;;;;;;;15.88;77.99;101700.44;5033553;28;20120;-74
2023/06/16 06:19:28;;;;;;;24.77;13.02;;;;;;;15.98;76.70;101707.84;5039847;28;20088;-76
2023/06/16 06:21:54;;;;;;;25.80;13.63;;;;;;;16.04;76.30;101702.75;5032303;28;20072;-75
2023/06/16 06:24:20;;;;;;;25.08;14.02;;;;;;;16.13;77.10;101709.25;5037419;28;20043;-75
2023/06/16 06:26:46;;;;;;;23.20;12.65;;;;;;;16.23;76.77;101706.66;5035809;28;20057;-75
2023/06/16 06:29:11;;;;;;;23.58;12.52;;;;;;;16.30;74.13;101705.16;5040410;28;20108;-75
2023/06/16 06:31:36;;;;;;;22.70;12.07;;;;;;;16.37;78.49;101709.06;5043418;28;20460;-75
2023/06/16 06:34:02;;;;;;;22.88;12.15;;;;;;;16.47;74.67;101711.00;5041123;28;20504;-73
2023/06/16 06:36:28;;;;;;;22.90;12.20;;;;;;;16.54;71.86;101721.19;5038760;28;20033;-73
2023/06/16 06:38:54;;;;;;;25.48;10.43;;;;;;;16.59;70.32;101716.25;5055597;28;20024;-73
2023/06/16 06:41:21;;;;;;;21.40;10.50;;;;;;;16.64;69.02;101720.44;5048217;28;20029;-73
2023/06/16 06:43:47;;;;;;;22.30;11.07;;;;;;;16.77;68.12;101721.09;5038314;28;20025;-73
2023/06/16 06:46:12;;;;;;;24.38;11.40;;;;;;;16.86;68.09;101730.31;5046258;28;20320;-73
2023/06/16 06:48:37;;;;;;;26.15;12.07;;;;;;;16.97;69.05;101733.00;5051668;28;20105;-73
2023/06/16 06:51:03;;;;;;;23.65;11.27;;;;;;;17.03;67.62;101724.31;5059332;28;20430;-73
2023/06/16 06:53:28;;;;;;;22.17;11.60;;;;;;;17.14;66.36;101719.78;5057775;28;20060;-73
2023/06/16 06:55:53;;;;;;;23.02;11.43;;;;;;;17.20;66.14;101724.69;5057099;28;20111;-73
2023/06/16 06:58:19;;;;;;;23.80;10.73;;;;;;;17.28;64.75;101727.59;5058135;28;20198;-73
2023/06/16 07:00:44;;;;;;;22.10;11.55;;;;;;;17.41;60.82;101725.50;5059222;28;20035;-73
2023/06/16 07:03:11;;;;;;;22.25;10.63;;;;;;;17.51;61.76;101725.56;5059585;28;20043;-74
2023/06/16 07:05:37;;;;;;;21.77;9.52;;;;;;;17.56;61.28;101725.16;5056614;28;20051;-73
2023/06/16 07:08:02;;;;;;;24.98;9.43;;;;;;;17.61;64.00;101731.03;5054804;28;20029;-73
2023/06/16 07:10:29;;;;;;;21.23;10.05;;;;;;;17.68;61.43;101729.47;5062614;28;20028;-73
2023/06/16 07:12:55;;;;;;;22.98;9.45;;;;;;;17.80;63.05;101733.81;5061956;28;20020;-73
2023/06/16 07:15:21;;;;;;;21.88;8.00;;;;;;;17.85;60.56;101732.53;5061185;28;20115;-73
2023/06/16 07:17:46;;;;;;;24.02;7.28;;;;;;;17.87;60.33;101730.53;5057261;28;20036;-74
2023/06/16 07:20:14;;;;;;;22.58;8.25;;;;;;;17.92;60.39;101729.16;5059632;28;20472;-73
2023/06/16 07:22:40;;;;;;;19.95;8.82;;;;;;;17.99;58.76;101733.06;5062537;28;20081;-73
2023/06/16 07:25:06;;;;;;;19.75;7.72;;;;;;;18.07;57.86;101726.03;5062771;28;20511;-73
2023/06/16 07:27:31;;;;;;;18.15;7.68;;;;;;;18.19;57.80;101729.50;5059998;28;20052;-74
2023/06/16 07:29:57;;;;;;;18.70;7.55;;;;;;;18.26;57.70;101727.91;5057921;28;20017;-73
2023/06/16 07:32:22;;;;;;;13.90;5.68;;;;;;;18.27;58.34;101729.66;5058427;28;20020;-74
2023/06/16 07:34:47;;;;;;;21.08;7.68;;;;;;;18.33;56.64;101729.06;5050114;28;20127;-74
2023/06/16 07:37:13;;;;;;;21.95;8.00;;;;;;;18.41;56.91;101729.22;5057903;28;20028;-74
2023/06/16 07:39:39;;;;;;;19.67;7.10;;;;;;;18.43;58.06;101731.81;5053093;28;20029;-74
2023/06/16 07:42:05;;;;;;;16.45;6.50;;;;;;;18.46;56.21;101739.69;5059515;28;20016;-74
2023/06/16 07:44:30;;;;;;;18.55;7.20;;;;;;;18.58;56.06;101734.97;5061772;28;20048;-74
2023/06/16 07:46:55;;;;;;;20.05;7.30;;;;;;;18.65;54.35;101733.38;5058691;28;20553;-74
2023/06/16 07:49:21;;;;;;;19.67;6.40;;;;;;;18.69;54.65;101738.38;5055085;28;20107;-74
2023/06/16 07:51:46;;;;;;;24.73;7.95;;;;;;;18.82;52.65;101738.09;5063099;28;20035;-74
2023/06/16 07:54:11;;;;;;;23.33;7.55;;;;;;;18.90;53.86;101739.28;5059851;28;20024;-73
2023/06/16 07:56:38;;;;;;;20.73;7.40;;;;;;;19.01;52.21;101729.06;5059932;28;20040;-73
2023/06/16 07:59:04;;;;;;;18.42;6.78;;;;;;;19.08;52.30;101731.19;5062754;28;20032;-74
2023/06/16 08:01:30;;;;;;;15.43;5.70;;;;;;;19.10;54.78;101735.50;5055016;28;20097;-73
2023/06/16 08:03:56;;;;;;;18.88;6.63;;;;;;;19.15;55.31;101735.94;5050634;28;20021;-74
2023/06/16 08:06:21;;;;;;;20.30;6.70;;;;;;;19.21;56.21;101731.78;5060918;28;20052;-73
2023/06/16 08:08:47;;;;;;;20.13;6.75;;;;;;;19.27;53.61;101735.75;5053268;28;20025;-74
2023/06/16 08:11:12;;;;;;;19.27;7.53;;;;;;;19.38;54.56;101730.13;5058017;28;20028;-74
2023/06/16 08:13:38;;;;;;;20.30;6.90;;;;;;;19.39;52.30;101723.66;5058574;28;20388;-74
2023/06/16 08:16:05;;;;;;;18.33;7.32;;;;;;;19.46;53.12;101730.25;5052150;28;20029;-74
2023/06/16 08:18:30;;;;;;;18.15;6.32;;;;;;;19.51;53.08;101730.63;5059696;28;20033;-74
2023/06/16 08:20:56;;;;;;;19.10;7.18;;;;;;;19.58;49.44;101730.91;5056240;28;20060;-74
2023/06/16 08:23:21;;;;;;;18.92;6.68;;;;;;;19.62;52.59;101729.59;5058766;28;20043;-74
2023/06/16 08:25:47;;;;;;;18.55;7.07;;;;;;;19.72;48.93;101730.41;5062567;28;20553;-74
2023/06/16 08:28:13;;;;;;;17.98;6.57;;;;;;;19.83;49.88;101715.75;5062962;28;20365;-74
2023/06/16 08:30:38;;;;;;;18.25;6.47;;;;;;;19.89;49.05;101719.72;5059159;28;20030;-74
2023/06/16 08:33:05;;;;;;;21.15;7.35;;;;;;;19.91;46.87;101723.16;5059389;28;20100;-74
2023/06/16 08:35:30;;;;;;;20.05;6.28;;;;;;;19.99;47.44;101723.25;5054299;28;20129;-74
2023/06/16 08:37:56;;;;;;;23.42;7.57;;;;;;;20.01;45.94;101712.19;5052888;28;20061;-77
2023/06/16 08:40:22;;;;;;;15.38;4.90;;;;;;;20.02;50.32;101712.03;5057652;28;20036;-73
2023/06/16 08:42:47;;;;;;;14.65;5.25;;;;;;;20.14;48.26;101707.22;5056135;28;20067;-73
2023/06/16 08:45:13;;;;;;;17.23;5.60;;;;;;;20.15;49.90;101713.53;5055459;28;20021;-73
2023/06/16 08:47:39;;;;;;;18.73;5.70;;;;;;;20.21;49.88;101711.03;5055572;28;20040;-73
2023/06/16 08:50:08;;;;;;;17.23;6.03;;;;;;;20.28;46.33;101710.41;5061364;28;20470;-73
2023/06/16 08:52:41;;;;;;;19.38;5.90;;;;;;;20.33;47.73;101711.66;5056436;28;20086;-73
2023/06/16 08:55:10;;;;;;;18.27;5.65;;;;;;;20.42;43.38;101720.78;5050470;28;20118;-73
2023/06/16 08:57:44;;;;;;;21.23;6.20;;;;;;;20.50;44.59;101715.41;5054997;28;20060;-73
2023/06/16 09:00:10;;;;;;;20.00;6.07;;;;;;;20.57;42.67;101718.38;5053238;28;20498;-73
2023/06/16 09:02:36;;;;;;;16.23;5.50;;;;;;;20.64;44.30;101718.59;5053826;28;20173;-73
2023/06/16 09:05:03;;;;;;;16.88;6.40;;;;;;;20.72;45.58;101714.09;5056707;28;20119;-73
2023/06/16 09:07:29;;;;;;;17.55;6.50;;;;;;;20.80;46.34;101716.03;5058866;28;20124;-73
2023/06/16 09:09:55;;;;;;;16.50;6.00;;;;;;;20.81;45.55;101709.56;5057468;28;20077;-73
2023/06/16 09:12:21;;;;;;;15.70;5.60;;;;;;;20.91;43.63;101704.84;5053392;28;20056;-73
2023/06/16 09:14:49;;;;;;;13.30;4.95;;;;;;;20.96;42.81;101715.31;5051969;28;20028;-73
2023/06/16 09:17:18;;;;;;;16.30;5.40;;;;;;;20.98;44.87;101715.97;5057359;28;20020;-73
2023/06/16 09:19:47;;;;;;;16.08;5.63;;;;;;;21.11;44.22;101718.31;5054138;28;20279;-73
2023/06/16 09:22:23;;;;;;;17.40;6.13;;;;;;;21.23;45.60;101718.88;5048042;28;20045;-73
2023/06/16 09:24:58;;;;;;;17.23;5.25;;;;;;;21.21;42.88;101716.31;5048341;28;20020;-73
2023/06/16 09:27:41;;;;;;;13.23;4.65;;;;;;;21.28;46.25;101722.84;5058319;28;20032;-73
2023/06/16 09:30:07;;;;;;;13.70;5.13;;;;;;;21.32;46.25;101717.06;5048206;28;20022;-73
2023/06/16 09:32:39;;;;;;;12.27;4.75;;;;;;;21.31;42.58;101718.94;5057854;28;20039;-72
2023/06/16 09:35:20;;;;;;;13.02;5.03;;;;;;;21.35;42.40;101719.47;5057172;28;20085;-73
2023/06/16 09:37:51;;;;;;;15.93;6.05;;;;;;;21.40;39.30;101717.13;5057791;28;20097;-73
2023/06/16 09:40:19;;;;;;;12.10;5.28;;;;;;;21.47;43.88;101710.81;5051834;28;20411;-73
2023/06/16 09:42:46;;;;;;;12.90;5.18;;;;;;;21.58;42.97;101706.13;5048676;28;20029;-73
2023/06/16 09:45:16;;;;;;;15.82;5.95;;;;;;;21.61;40.72;101703.03;5045747;28;20479;-73
2023/06/16 09:47:45;;;;;;;18.70;5.57;;;;;;;21.69;41.18;101710.44;5059160;28;20178;-73
2023/06/16 09:50:15;;;;;;;;;;;;;;;21.67;42.71;101707.00;5057829;28;20040;-73
2023/06/16 09:52:42;;;;;;;17.85;5.30;;;;;;;21.71;41.63;101703.78;5056966;28;20299;-72
2023/06/16 09:55:08;;;;;;;14.93;5.15;;;;;;;21.78;42.14;101706.72;5058597;28;20342;-72
2023/06/16 09:57:33;;;;;;;13.93;4.78;;;;;;;21.79;41.71;101702.97;5051084;28;20166;-73
2023/06/16 09:59:59;;;;;;;18.52;5.65;;;;;;;21.83;39.62;101707.06;5050457;28;20343;-73
2023/06/16 10:02:25;;;;;;;12.88;4.70;;;;;;;21.85;43.67;101701.44;5047877;28;20033;-73
2023/06/16 10:04:54;;;;;;;15.80;5.93;;;;;;;21.85;37.20;101706.91;5054746;28;20021;-73
2023/06/16 10:07:20;;;;;;;12.88;5.10;;;;;;;21.82;42.85;101699.91;5057829;28;20361;-73
2023/06/16 10:09:50;;;;;;;16.60;6.13;;;;;;;21.90;38.97;101702.63;5053296;28;20028;-73
2023/06/16 10:12:18;;;;;;;15.35;5.88;;;;;;;21.93;39.38;101696.84;5054767;28;20032;-73
2023/06/16 10:14:44;;;;;;;12.82;4.18;;;;;;;21.88;45.00;101691.00;5059873;28;20043;-73
2023/06/16 10:17:10;;;;;;;14.18;5.60;;;;;;;22.04;39.80;101692.09;5059969;28;20041;-72
2023/06/16 10:19:38;;;;;;;11.82;4.28;;;;;;;22.06;40.25;101690.03;5058096;28;20108;-73
2023/06/16 10:22:04;;;;;;;13.65;5.05;;;;;;;22.15;41.52;101692.63;5055719;28;20473;-73
2023/06/16 10:24:30;;;;;;;15.55;5.82;;;;;;;22.21;40.16;101691.06;5058429;28;20122;-73
2023/06/16 10:26:56;;;;;;;14.50;5.32;;;;;;;22.29;40.84;101688.34;5060294;28;20032;-73
2023/06/16 10:29:25;;;;;;;13.93;5.13;;;;;;;22.37;41.59;101693.00;5050862;28;20028;-73
2023/06/16 10:32:02;;;;;;;12.05;4.80;;;;;;;22.33;42.57;101681.56;5057230;28;20027;-73
2023/06/16 10:34:27;;;;;;;14.48;5.80;;;;;;;22.39;40.81;101684.63;5050024;28;20461;-73
2023/06/16 10:36:54;;;;;;;12.95;5.13;;;;;;;22.39;42.33;101685.50;5050912;28;20060;-73
2023/06/16 10:39:19;;;;;;;22.20;5.78;;;;;;;;;;5050885;28;20266;-73
2023/06/16 10:41:58;;;;;;;16.33;5.75;;;;;;;22.41;39.12;101672.47;5053746;28;20447;-73
2023/06/16 10:44:28;;;;;;;15.57;5.60;;;;;;;22.46;39.63;101672.84;5058781;28;20044;-73
2023/06/16 10:47:08;;;;;;;;;;;;;;;22.43;41.91;101675.03;5050431;28;20424;-73
2023/06/16 10:50:02;;;;;;;16.35;5.43;;;;;;;22.54;40.92;101669.22;5043551;28;19928;-73
2023/06/16 10:52:34;;;;;;;15.27;6.00;;;;;;;22.66;37.96;101678.78;5045517;28;20041;-73
2023/06/16 10:55:36;;;;;;;12.23;4.93;;;;;;;22.63;42.28;101676.41;5043963;28;20140;-73
2023/06/16 10:58:13;;;;;;;16.55;5.47;;;;;;;22.64;36.34;101669.06;5026125;28;20076;-73
2023/06/16 11:00:44;;;;;;;14.15;5.40;;;;;;;22.72;35.81;101670.94;5025355;28;20053;-73
2023/06/16 11:03:13;;;;;;;14.32;5.30;;;;;;;22.78;37.20;101660.16;5026988;28;20076;-73
2023/06/16 11:05:42;;;;;;;17.10;6.43;;;;;;;22.80;40.24;101663.56;5044097;28;20052;-73
2023/06/16 11:08:11;;;;;;;;;;;;;;;22.79;39.26;101664.56;5024803;28;20040;-73
2023/06/16 11:10:56;;;;;;;13.88;5.03;;;;;;;22.88;40.37;101668.16;5041292;28;20391;-73
2023/06/16 11:13:26;;;;;;;15.55;5.80;;;;;;;22.95;39.70;101660.97;5041045;28;20048;-73
2023/06/16 11:15:55;;;;;;;15.00;5.05;;;;;;;22.94;37.46;101661.97;5025191;28;20025;-73